Time,TemperatureF,DewpointF,PressureIn,WindDirection,WindDirectionDegrees,WindSpeedMPH,WindSpeedGustMPH,Humidity,HourlyPrecipIn,Conditions,Clouds,dailyrainin,SoftwareType,DateUTC
2013-06-20 00:12:00,65.8,64.4,30.15,ESE,120,0.0,0.0,95,0.00,,,0.00,VWS V14.00,2013-06-20 04:12:00,
2013-06-20 00:13:00,65.8,64.4,30.15,ESE,120,0.0,0.0,95,0.00,,,0.00,VWS V14.00,2013-06-20 04:13:00,
2013-06-20 00:15:00,65.8,64.4,30.15,ESE,120,0.0,0.0,95,0.00,,,0.00,VWS V14.00,2013-06-20 04:15:00,
2013-06-20 00:20:00,65.8,64.4,30.15,ESE,120,0.0,0.0,95,0.00,,,0.00,VWS V14.00,2013-06-20 04:20:00,
2013-06-20 00:25:00,65.8,64.4,30.15,ESE,120,0.0,0.0,95,0.00,,,0.00,VWS V14.00,2013-06-20 04:25:00,
2013-06-20 00:30:00,65.8,64.7,30.15,ESE,120,0.0,0.0,96,0.00,,,0.00,VWS V14.00,2013-06-20 04:30:00,
2013-06-20 00:35:00,65.8,64.7,30.15,ESE,120,0.0,0.0,96,0.00,,,0.00,VWS V14.00,2013-06-20 04:35:00,
2013-06-20 00:40:00,65.7,64.5,30.15,ESE,120,0.0,0.0,96,0.00,,,0.00,VWS V14.00,2013-06-20 04:40:00,
2013-06-20 00:45:00,65.7,64.5,30.15,ESE,120,0.0,0.0,96,0.00,,,0.00,VWS V14.00,2013-06-20 04:45:00,
2013-06-20 00:50:00,65.5,64.3,30.15,ESE,120,0.0,0.0,96,0.00,,,0.00,VWS V14.00,2013-06-20 04:50:00,
2013-06-20 00:55:00,65.5,64.3,30.15,ESE,120,0.0,0.0,96,0.00,,,0.00,VWS V14.00,2013-06-20 04:55:00,
2013-06-20 01:00:00,65.5,64.3,30.15,ESE,120,0.0,0.0,96,0.00,,,0.00,VWS V14.00,2013-06-20 05:00:00,
2013-06-20 01:05:00,65.3,64.1,30.15,ESE,120,0.0,0.0,96,0.00,,,0.00,VWS V14.00,2013-06-20 05:05:00,
2013-06-20 01:10:00,65.3,64.1,30.15,ESE,120,0.0,0.0,96,0.00,,,0.00,VWS V14.00,2013-06-20 05:10:00,
2013-06-20 01:15:00,65.1,64.0,30.15,ESE,120,0.0,0.0,96,0.00,,,0.00,VWS V14.00,2013-06-20 05:15:00,
2013-06-20 01:20:00,65.1,64.0,30.18,ESE,120,0.0,0.0,96,0.00,,,0.00,VWS V14.00,2013-06-20 05:20:00,
2013-06-20 01:25:00,64.9,64.1,30.18,ESE,120,0.0,0.0,97,0.00,,,0.00,VWS V14.00,2013-06-20 05:25:00,
2013-06-20 01:30:00,64.9,64.1,30.18,ESE,120,0.0,0.0,97,0.00,,,0.00,VWS V14.00,2013-06-20 05:30:00,
2013-06-20 01:35:00,64.9,64.1,30.18,ESE,120,0.0,0.0,97,0.00,,,0.00,VWS V14.00,2013-06-20 05:35:00,
2013-06-20 01:40:00,64.9,64.1,30.18,ESE,120,0.0,0.0,97,0.00,,,0.00,VWS V14.00,2013-06-20 05:40:00,
2013-06-20 01:46:00,64.9,63.8,30.18,ESE,120,0.0,0.0,96,0.00,,,0.00,VWS V14.00,2013-06-20 05:46:00,
2013-06-20 01:51:00,64.8,63.6,30.15,ESE,120,0.0,0.0,96,0.00,,,0.00,VWS V14.00,2013-06-20 05:51:00,
2013-06-20 01:56:00,64.8,63.6,30.15,ESE,120,0.0,0.0,96,0.00,,,0.00,VWS V14.00,2013-06-20 05:56:00,
2013-06-20 02:01:00,64.8,63.6,30.15,ESE,120,0.0,0.0,96,0.00,,,0.00,VWS V14.00,2013-06-20 06:01:00,
2013-06-20 02:06:00,64.8,63.9,30.15,ESE,120,0.0,0.0,97,0.00,,,0.00,VWS V14.00,2013-06-20 06:06:00,
2013-06-20 02:11:00,64.8,63.9,30.15,ESE,120,0.0,0.0,97,0.00,,,0.00,VWS V14.00,2013-06-20 06:11:00,
2013-06-20 02:16:00,64.6,63.7,30.15,ESE,120,0.0,0.0,97,0.00,,,0.00,VWS V14.00,2013-06-20 06:16:00,
2013-06-20 02:21:00,64.6,63.7,30.15,ESE,120,0.0,0.0,97,0.00,,,0.00,VWS V14.00,2013-06-20 06:21:00,
2013-06-20 02:26:00,64.6,63.7,30.15,ESE,120,0.0,0.0,97,0.00,,,0.00,VWS V14.00,2013-06-20 06:26:00,
2013-06-20 02:31:00,64.6,63.7,30.15,ESE,120,0.0,0.0,97,0.00,,,0.00,VWS V14.00,2013-06-20 06:31:00,
2013-06-20 02:36:00,64.4,63.5,30.15,ESE,120,0.0,0.0,97,0.00,,,0.00,VWS V14.00,2013-06-20 06:36:00,
2013-06-20 02:41:00,64.4,63.5,30.15,ESE,120,0.0,0.0,97,0.00,,,0.00,VWS V14.00,2013-06-20 06:41:00,
2013-06-20 02:47:00,64.4,63.5,30.15,ESE,120,0.0,0.0,97,0.00,,,0.00,VWS V14.00,2013-06-20 06:47:00,
2013-06-20 02:52:00,64.4,63.5,30.15,ESE,120,0.0,0.0,97,0.00,,,0.00,VWS V14.00,2013-06-20 06:52:00,
2013-06-20 02:57:00,64.2,63.7,30.15,ESE,120,0.0,0.0,98,0.00,,,0.00,VWS V14.00,2013-06-20 06:57:00,
2013-06-20 03:02:00,64.2,63.7,30.15,ESE,120,0.0,0.0,98,0.00,,,0.00,VWS V14.00,2013-06-20 07:02:00,
2013-06-20 03:07:00,64.2,63.7,30.15,ESE,120,0.0,0.0,98,0.00,,,0.00,VWS V14.00,2013-06-20 07:07:00,
2013-06-20 03:12:00,64.2,63.7,30.15,ESE,120,0.0,0.0,98,0.00,,,0.00,VWS V14.00,2013-06-20 07:12:00,
2013-06-20 03:17:00,64.0,63.5,30.15,ESE,120,0.0,0.0,98,0.00,,,0.00,VWS V14.00,2013-06-20 07:17:00,
2013-06-20 03:22:00,64.0,63.5,30.15,ESE,120,0.0,0.0,98,0.00,,,0.00,VWS V14.00,2013-06-20 07:22:00,
2013-06-20 03:27:00,64.0,63.5,30.15,ESE,120,0.0,0.0,98,0.00,,,0.00,VWS V14.00,2013-06-20 07:27:00,
2013-06-20 03:32:00,64.0,63.5,30.15,ESE,120,0.0,0.0,98,0.00,,,0.00,VWS V14.00,2013-06-20 07:32:00,
2013-06-20 06:06:00,64.4,63.8,30.18,ESE,120,0.0,0.0,98,0.00,,,0.00,VWS V14.00,2013-06-20 10:06:00,
2013-06-20 06:11:00,64.4,63.8,30.18,ESE,120,0.0,0.0,98,0.00,,,0.00,VWS V14.00,2013-06-20 10:11:00,
2013-06-20 06:16:00,64.6,64.0,30.18,East,98,0.0,0.0,98,0.00,,,0.00,VWS V14.00,2013-06-20 10:16:00,
2013-06-20 06:21:00,64.8,64.2,30.21,East,98,0.0,0.0,98,0.00,,,0.00,VWS V14.00,2013-06-20 10:21:00,
2013-06-20 06:26:00,64.8,64.2,30.21,East,98,0.0,0.0,98,0.00,,,0.00,VWS V14.00,2013-06-20 10:26:00,
2013-06-20 06:31:00,64.9,64.4,30.21,East,98,0.0,0.0,98,0.00,,,0.00,VWS V14.00,2013-06-20 10:31:00,
2013-06-20 06:36:00,64.9,64.4,30.21,East,98,0.0,0.0,98,0.00,,,0.00,VWS V14.00,2013-06-20 10:36:00,
2013-06-20 06:41:00,65.1,64.5,30.21,East,98,0.0,0.0,98,0.00,,,0.00,VWS V14.00,2013-06-20 10:41:00,
2013-06-20 06:46:00,65.1,64.5,30.21,East,98,0.0,0.0,98,0.00,,,0.00,VWS V14.00,2013-06-20 10:46:00,
2013-06-20 06:51:00,65.1,64.5,30.24,East,98,0.0,0.0,98,0.00,,,0.00,VWS V14.00,2013-06-20 10:51:00,
2013-06-20 06:56:00,65.1,64.5,30.24,East,98,0.0,0.0,98,0.00,,,0.00,VWS V14.00,2013-06-20 10:56:00,
2013-06-20 07:02:00,65.3,64.7,30.24,East,98,0.0,0.0,98,0.00,,,0.00,VWS V14.00,2013-06-20 11:02:00,
2013-06-20 07:07:00,65.3,64.7,30.24,East,98,0.0,0.0,98,0.00,,,0.00,VWS V14.00,2013-06-20 11:07:00,
2013-06-20 07:12:00,65.3,64.7,30.24,East,98,0.0,0.0,98,0.00,,,0.00,VWS V14.00,2013-06-20 11:12:00,
2013-06-20 07:17:00,65.3,64.7,30.24,East,98,0.0,0.0,98,0.00,,,0.00,VWS V14.00,2013-06-20 11:17:00,
2013-06-20 07:22:00,65.3,64.7,30.24,East,98,0.0,0.0,98,0.00,,,0.00,VWS V14.00,2013-06-20 11:22:00,
2013-06-20 07:27:00,65.5,64.9,30.24,East,98,0.0,0.0,98,0.00,,,0.00,VWS V14.00,2013-06-20 11:27:00,
2013-06-20 07:32:00,65.5,64.9,30.24,East,98,0.0,0.0,98,0.00,,,0.00,VWS V14.00,2013-06-20 11:32:00,
2013-06-20 07:37:00,65.5,64.9,30.24,East,98,0.0,0.0,98,0.00,,,0.00,VWS V14.00,2013-06-20 11:37:00,
2013-06-20 07:42:00,65.7,65.1,30.24,East,98,0.0,0.0,98,0.00,,,0.00,VWS V14.00,2013-06-20 11:42:00,
2013-06-20 07:47:00,65.7,65.1,30.24,ESE,120,0.0,0.0,98,0.00,,,0.00,VWS V14.00,2013-06-20 11:47:00,
2013-06-20 07:52:00,65.7,65.1,30.24,ESE,120,0.0,0.0,98,0.00,,,0.00,VWS V14.00,2013-06-20 11:52:00,
2013-06-20 07:57:00,65.7,65.1,30.24,ESE,120,0.0,0.9,98,0.00,,,0.00,VWS V14.00,2013-06-20 11:57:00,
2013-06-20 08:02:00,65.7,65.1,30.24,SE,142,0.9,4.7,98,0.00,,,0.00,VWS V14.00,2013-06-20 12:02:00,
2013-06-20 08:07:00,65.5,64.9,30.24,SE,142,2.7,3.6,98,0.00,,,0.00,VWS V14.00,2013-06-20 12:07:00,
2013-06-20 08:12:00,65.3,64.7,30.24,East,98,0.0,3.6,98,0.00,,,0.00,VWS V14.00,2013-06-20 12:12:00,
2013-06-20 08:17:00,65.3,64.7,30.24,East,98,2.2,2.2,98,0.00,,,0.00,VWS V14.00,2013-06-20 12:17:00,
2013-06-20 08:22:00,65.3,64.7,30.21,East,98,0.0,0.0,98,0.00,,,0.00,VWS V14.00,2013-06-20 12:22:00,
2013-06-20 08:27:00,65.3,64.7,30.21,ESE,120,0.0,1.3,98,0.00,,,0.00,VWS V14.00,2013-06-20 12:27:00,
2013-06-20 08:32:00,65.3,64.7,30.21,ESE,120,0.0,3.1,98,0.00,,,0.00,VWS V14.00,2013-06-20 12:32:00,
2013-06-20 08:37:00,65.5,64.9,30.21,ESE,120,0.0,0.0,98,0.00,,,0.00,VWS V14.00,2013-06-20 12:37:00,
2013-06-20 08:42:00,65.5,64.9,30.21,East,98,0.0,0.0,98,0.00,,,0.00,VWS V14.00,2013-06-20 12:42:00,
2013-06-20 08:47:00,65.5,64.9,30.21,East,98,0.0,0.0,98,0.00,,,0.00,VWS V14.00,2013-06-20 12:47:00,
2013-06-20 08:52:00,65.7,65.1,30.24,ESE,120,0.0,0.0,98,0.00,,,0.00,VWS V14.00,2013-06-20 12:52:00,
2013-06-20 08:57:00,65.7,65.1,30.24,ESE,120,0.0,0.0,98,0.00,,,0.00,VWS V14.00,2013-06-20 12:57:00,
2013-06-20 09:02:00,65.8,65.3,30.24,ESE,120,0.0,0.0,98,0.00,,,0.00,VWS V14.00,2013-06-20 13:02:00,
2013-06-20 09:07:00,65.8,65.3,30.24,ESE,120,0.0,0.0,98,0.00,,,0.00,VWS V14.00,2013-06-20 13:07:00,
2013-06-20 09:12:00,65.8,65.3,30.24,SE,142,0.0,0.0,98,0.00,,,0.00,VWS V14.00,2013-06-20 13:12:00,
2013-06-20 09:18:00,65.7,65.1,30.24,ESE,120,0.0,0.0,98,0.00,,,0.00,VWS V14.00,2013-06-20 13:18:00,
2013-06-20 09:23:00,65.8,65.3,30.24,ESE,120,0.0,0.0,98,0.00,,,0.00,VWS V14.00,2013-06-20 13:23:00,
2013-06-20 09:28:00,66.0,65.4,30.24,ESE,120,0.0,0.0,98,0.00,,,0.00,VWS V14.00,2013-06-20 13:28:00,
2013-06-20 09:33:00,66.2,65.3,30.24,East,98,0.0,0.0,97,0.00,,,0.00,VWS V14.00,2013-06-20 13:33:00,
2013-06-20 09:38:00,66.4,65.5,30.27,East,98,0.0,0.0,97,0.00,,,0.00,VWS V14.00,2013-06-20 13:38:00,
2013-06-20 09:43:00,66.6,65.7,30.27,ESE,120,0.0,0.0,97,0.00,,,0.00,VWS V14.00,2013-06-20 13:43:00,
2013-06-20 09:48:00,66.7,65.9,30.27,ESE,120,0.0,0.0,97,0.00,,,0.00,VWS V14.00,2013-06-20 13:48:00,
2013-06-20 09:53:00,66.7,65.9,30.24,ESE,120,0.0,0.0,97,0.00,,,0.00,VWS V14.00,2013-06-20 13:53:00,
2013-06-20 09:58:00,66.9,66.0,30.24,SSW,210,0.0,0.0,97,0.00,,,0.00,VWS V14.00,2013-06-20 13:58:00,
2013-06-20 10:03:00,67.1,65.9,30.24,SSW,210,0.0,0.0,96,0.00,,,0.00,VWS V14.00,2013-06-20 14:03:00,
2013-06-20 10:08:00,67.3,66.1,30.27,South,188,0.0,0.0,96,0.00,,,0.00,VWS V14.00,2013-06-20 14:08:00,
2013-06-20 10:13:00,67.5,66.3,30.27,WNW,300,0.0,0.0,96,0.00,,,0.00,VWS V14.00,2013-06-20 14:13:00,
2013-06-20 10:19:00,67.5,66.3,30.27,WNW,300,0.0,0.0,96,0.00,,,0.00,VWS V14.00,2013-06-20 14:19:00,
2013-06-20 10:24:00,67.6,66.2,30.27,West,278,0.0,0.0,95,0.00,,,0.00,VWS V14.00,2013-06-20 14:24:00,
2013-06-20 10:29:00,68.0,66.5,30.27,West,278,0.0,0.0,95,0.00,,,0.00,VWS V14.00,2013-06-20 14:29:00,
2013-06-20 10:34:00,68.2,66.4,30.27,West,278,0.0,0.0,94,0.00,,,0.00,VWS V14.00,2013-06-20 14:34:00,
2013-06-20 10:39:00,68.5,66.8,30.27,WNW,300,0.0,0.0,94,0.00,,,0.00,VWS V14.00,2013-06-20 14:39:00,
2013-06-20 10:44:00,68.7,66.6,30.27,WNW,300,0.0,0.0,93,0.00,,,0.00,VWS V14.00,2013-06-20 14:44:00,
2013-06-20 10:49:00,68.7,66.6,30.27,WNW,300,0.0,0.0,93,0.00,,,0.00,VWS V14.00,2013-06-20 14:49:00,
2013-06-20 10:54:00,68.7,66.3,30.27,WNW,300,0.0,0.0,92,0.00,,,0.00,VWS V14.00,2013-06-20 14:54:00,
2013-06-20 10:59:00,68.9,66.5,30.27,West,278,0.0,0.0,92,0.00,,,0.00,VWS V14.00,2013-06-20 14:59:00,
2013-06-20 11:04:00,69.3,66.8,30.27,West,278,0.0,0.0,92,0.00,,,0.00,VWS V14.00,2013-06-20 15:04:00,
2013-06-20 11:09:00,69.4,66.7,30.27,West,278,0.0,0.0,91,0.00,,,0.00,VWS V14.00,2013-06-20 15:09:00,
2013-06-20 11:14:00,70.0,66.9,30.27,West,278,0.0,0.0,90,0.00,,,0.00,VWS V14.00,2013-06-20 15:14:00,
2013-06-20 11:19:00,70.5,67.1,30.27,West,278,0.0,0.0,89,0.00,,,0.00,VWS V14.00,2013-06-20 15:19:00,
2013-06-20 11:24:00,70.5,66.8,30.27,West,278,0.0,0.0,88,0.00,,,0.00,VWS V14.00,2013-06-20 15:24:00,
2013-06-20 11:29:00,70.5,66.8,30.27,West,278,0.0,0.0,88,0.00,,,0.00,VWS V14.00,2013-06-20 15:29:00,
2013-06-20 11:34:00,71.1,67.0,30.27,South,188,0.0,0.0,87,0.00,,,0.00,VWS V14.00,2013-06-20 15:34:00,
2013-06-20 11:40:00,71.1,67.0,30.27,West,278,0.0,0.0,87,0.00,,,0.00,VWS V14.00,2013-06-20 15:40:00,
2013-06-20 11:45:00,71.1,66.7,30.27,West,278,0.0,0.0,86,0.00,,,0.00,VWS V14.00,2013-06-20 15:45:00,
2013-06-20 11:50:00,71.6,67.5,30.27,East,98,0.0,0.0,87,0.00,,,0.00,VWS V14.00,2013-06-20 15:50:00,
2013-06-20 11:55:00,72.0,67.6,30.27,East,98,0.0,0.0,86,0.00,,,0.00,VWS V14.00,2013-06-20 15:55:00,
2013-06-20 12:06:00,72.3,66.9,30.24,NE,52,0.0,0.0,83,0.00,,,0.00,VWS V14.00,2013-06-20 16:06:00,
2013-06-20 12:11:00,72.3,67.2,30.24,NE,52,0.0,0.0,84,0.00,,,0.00,VWS V14.00,2013-06-20 16:11:00,
2013-06-20 12:16:00,72.9,67.8,30.24,NE,52,0.0,0.0,84,0.00,,,0.00,VWS V14.00,2013-06-20 16:16:00,
2013-06-20 12:21:00,73.6,68.1,30.27,SE,142,0.0,0.0,83,0.00,,,0.00,VWS V14.00,2013-06-20 16:21:00,
2013-06-20 12:26:00,73.2,66.0,30.27,ESE,120,0.0,0.0,78,0.00,,,0.00,VWS V14.00,2013-06-20 16:26:00,
2013-06-20 12:31:00,73.2,66.3,30.27,SSE,165,0.0,0.0,79,0.00,,,0.00,VWS V14.00,2013-06-20 16:31:00,
2013-06-20 12:37:00,73.2,66.7,30.27,SSW,210,0.0,0.0,80,0.00,,,0.00,VWS V14.00,2013-06-20 16:37:00,
2013-06-20 12:42:00,74.1,67.6,30.27,SSW,210,0.0,0.0,80,0.00,,,0.00,VWS V14.00,2013-06-20 16:42:00,
2013-06-20 12:47:00,73.8,66.5,30.27,NW,322,0.0,0.0,78,0.00,,,0.00,VWS V14.00,2013-06-20 16:47:00,
2013-06-20 12:52:00,74.5,66.8,30.27,WSW,255,0.0,0.0,77,0.00,,,0.00,VWS V14.00,2013-06-20 16:52:00,
2013-06-20 12:57:00,74.3,66.6,30.27,West,278,0.0,0.0,77,0.00,,,0.00,VWS V14.00,2013-06-20 16:57:00,
2013-06-20 13:02:00,73.9,66.3,30.27,NW,322,0.0,0.0,77,0.00,,,0.00,VWS V14.00,2013-06-20 17:02:00,
2013-06-20 13:07:00,73.8,66.5,30.27,NW,322,0.0,0.0,78,0.00,,,0.00,VWS V14.00,2013-06-20 17:07:00,
2013-06-20 13:12:00,73.8,66.5,30.27,NW,322,0.0,0.0,78,0.00,,,0.00,VWS V14.00,2013-06-20 17:12:00,
2013-06-20 13:17:00,75.0,68.1,30.27,East,98,0.0,0.0,79,0.00,,,0.00,VWS V14.00,2013-06-20 17:17:00,
2013-06-20 13:22:00,74.8,66.8,30.27,West,278,0.0,0.0,76,0.00,,,0.00,VWS V14.00,2013-06-20 17:22:00,
2013-06-20 13:27:00,75.0,66.9,30.27,West,278,0.0,0.0,76,0.00,,,0.00,VWS V14.00,2013-06-20 17:27:00,
2013-06-20 13:32:00,75.4,67.3,30.27,NNW,345,0.0,0.0,76,0.00,,,0.00,VWS V14.00,2013-06-20 17:32:00,
2013-06-20 13:38:00,76.1,68.0,30.24,North,8,0.0,0.0,76,0.00,,,0.00,VWS V14.00,2013-06-20 17:38:00,
2013-06-20 13:43:00,76.3,68.2,30.24,NW,322,0.0,0.0,76,0.00,,,0.00,VWS V14.00,2013-06-20 17:43:00,
2013-06-20 13:48:00,76.8,67.9,30.24,NW,322,0.0,0.0,74,0.00,,,0.00,VWS V14.00,2013-06-20 17:48:00,
2013-06-20 13:53:00,76.1,66.4,30.24,East,98,0.0,0.0,72,0.00,,,0.00,VWS V14.00,2013-06-20 17:53:00,
2013-06-20 13:58:00,75.6,66.3,30.24,North,8,0.0,0.0,73,0.00,,,0.00,VWS V14.00,2013-06-20 17:58:00,
2013-06-20 14:03:00,75.6,66.7,30.24,East,98,0.0,0.0,74,0.00,,,0.00,VWS V14.00,2013-06-20 18:03:00,
2013-06-20 14:08:00,75.2,66.7,30.24,WNW,300,0.0,0.0,75,0.00,,,0.00,VWS V14.00,2013-06-20 18:08:00,
2013-06-20 14:13:00,74.7,66.6,30.24,WNW,300,0.0,0.0,76,0.00,,,0.00,VWS V14.00,2013-06-20 18:13:00,
2013-06-20 14:18:00,74.8,67.2,30.24,WNW,300,0.0,0.0,77,0.00,,,0.00,VWS V14.00,2013-06-20 18:18:00,
2013-06-20 14:23:00,76.1,68.0,30.27,West,278,0.0,0.0,76,0.00,,,0.00,VWS V14.00,2013-06-20 18:23:00,
2013-06-20 14:28:00,77.5,69.0,30.27,WNW,300,0.0,0.0,75,0.00,,,0.00,VWS V14.00,2013-06-20 18:28:00,
2013-06-20 14:33:00,77.2,67.5,30.27,NW,322,0.0,0.0,72,0.00,,,0.00,VWS V14.00,2013-06-20 18:33:00,
2013-06-20 14:38:00,76.3,67.0,30.24,WNW,300,0.0,0.0,73,0.00,,,0.00,VWS V14.00,2013-06-20 18:38:00,
2013-06-20 14:43:00,75.7,66.1,30.24,WNW,300,0.0,0.0,72,0.00,,,0.00,VWS V14.00,2013-06-20 18:43:00,
2013-06-20 14:48:00,75.2,66.3,30.24,NW,322,0.0,0.0,74,0.00,,,0.00,VWS V14.00,2013-06-20 18:48:00,
2013-06-20 14:53:00,75.0,66.2,30.24,NW,322,0.0,0.0,74,0.00,,,0.00,VWS V14.00,2013-06-20 18:53:00,
2013-06-20 14:58:00,75.7,67.6,30.24,WSW,255,0.0,0.0,76,0.00,,,0.00,VWS V14.00,2013-06-20 18:58:00,
2013-06-20 15:03:00,76.8,67.1,30.24,East,98,0.0,0.0,72,0.00,,,0.00,VWS V14.00,2013-06-20 19:03:00,
2013-06-20 15:08:00,77.4,66.8,30.21,ESE,120,0.0,0.0,70,0.00,,,0.00,VWS V14.00,2013-06-20 19:08:00,
2013-06-20 15:13:00,77.4,66.4,30.21,North,8,1.1,2.7,69,0.00,,,0.00,VWS V14.00,2013-06-20 19:13:00,
2013-06-20 15:18:00,77.7,66.8,30.21,East,98,2.0,2.0,69,0.00,,,0.00,VWS V14.00,2013-06-20 19:18:00,
2013-06-20 15:23:00,77.2,65.4,30.21,SE,142,0.0,0.0,67,0.00,,,0.00,VWS V14.00,2013-06-20 19:23:00,
2013-06-20 15:28:00,77.2,63.6,30.21,SE,142,1.1,2.5,63,0.00,,,0.00,VWS V14.00,2013-06-20 19:28:00,
2013-06-20 15:33:00,77.7,65.0,30.21,SE,142,0.0,0.0,65,0.00,,,0.00,VWS V14.00,2013-06-20 19:33:00,
2013-06-20 15:40:00,78.1,64.5,30.24,East,98,0.9,2.5,63,0.00,,,0.00,VWS V14.00,2013-06-20 19:40:00,
2013-06-20 15:45:00,78.3,65.1,30.24,East,98,0.0,0.0,64,0.00,,,0.00,VWS V14.00,2013-06-20 19:45:00,
2013-06-20 15:50:00,77.2,64.5,30.24,East,98,1.1,1.6,65,0.00,,,0.00,VWS V14.00,2013-06-20 19:50:00,
2013-06-20 15:55:00,77.2,64.9,30.24,East,98,0.0,0.0,66,0.00,,,0.00,VWS V14.00,2013-06-20 19:55:00,
2013-06-20 16:00:00,76.8,65.0,30.24,East,98,0.0,0.0,67,0.00,,,0.00,VWS V14.00,2013-06-20 20:00:00,
2013-06-20 16:05:00,77.0,65.6,30.24,East,98,0.0,0.0,68,0.00,,,0.00,VWS V14.00,2013-06-20 20:05:00,
2013-06-20 16:10:00,77.5,64.0,30.24,East,98,2.5,2.9,63,0.00,,,0.00,VWS V14.00,2013-06-20 20:10:00,
2013-06-20 16:15:00,78.4,65.3,30.24,East,98,0.0,4.0,64,0.00,,,0.00,VWS V14.00,2013-06-20 20:15:00,
2013-06-20 16:20:00,78.4,65.7,30.24,East,98,0.0,0.0,65,0.00,,,0.00,VWS V14.00,2013-06-20 20:20:00,
2013-06-20 16:25:00,78.4,64.8,30.24,ESE,120,0.0,1.3,63,0.00,,,0.00,VWS V14.00,2013-06-20 20:25:00,
2013-06-20 16:30:00,78.3,64.6,30.24,NE,52,0.0,2.0,63,0.00,,,0.00,VWS V14.00,2013-06-20 20:30:00,
2013-06-20 16:36:00,78.3,63.2,30.24,ESE,120,1.6,3.6,60,0.00,,,0.00,VWS V14.00,2013-06-20 20:36:00,
2013-06-20 16:41:00,78.3,63.2,30.24,ESE,120,0.0,1.3,60,0.00,,,0.00,VWS V14.00,2013-06-20 20:41:00,
2013-06-20 16:46:00,78.3,63.2,30.24,SE,142,0.0,2.5,60,0.00,,,0.00,VWS V14.00,2013-06-20 20:46:00,
2013-06-20 16:51:00,78.4,64.3,30.21,SE,142,0.0,1.3,62,0.00,,,0.00,VWS V14.00,2013-06-20 20:51:00,
2013-06-20 16:56:00,78.3,63.7,30.21,East,98,1.3,1.6,61,0.00,,,0.00,VWS V14.00,2013-06-20 20:56:00,
2013-06-20 17:01:00,78.1,63.1,30.21,East,98,0.0,1.6,60,0.00,,,0.00,VWS V14.00,2013-06-20 21:01:00,
2013-06-20 17:06:00,78.1,64.0,30.21,SE,142,0.0,1.1,62,0.00,,,0.00,VWS V14.00,2013-06-20 21:06:00,
2013-06-20 17:11:00,78.1,64.5,30.21,SE,142,0.0,1.1,63,0.00,,,0.00,VWS V14.00,2013-06-20 21:11:00,
2013-06-20 17:16:00,78.1,64.5,30.21,SE,142,0.0,0.0,63,0.00,,,0.00,VWS V14.00,2013-06-20 21:16:00,
2013-06-20 17:21:00,78.1,64.5,30.21,ESE,120,0.0,1.6,63,0.00,,,0.00,VWS V14.00,2013-06-20 21:21:00,
2013-06-20 17:26:00,78.3,62.8,30.21,ESE,120,0.0,3.4,59,0.00,,,0.00,VWS V14.00,2013-06-20 21:26:00,
2013-06-20 17:31:00,78.3,63.7,30.21,ESE,120,0.0,0.0,61,0.00,,,0.00,VWS V14.00,2013-06-20 21:31:00,
2013-06-20 17:36:00,78.3,63.7,30.18,East,98,0.0,2.7,61,0.00,,,0.00,VWS V14.00,2013-06-20 21:36:00,
2013-06-20 17:41:00,78.1,63.1,30.18,ESE,120,0.0,2.7,60,0.00,,,0.00,VWS V14.00,2013-06-20 21:41:00,
2013-06-20 17:46:00,77.7,63.7,30.18,ESE,120,0.0,0.0,62,0.00,,,0.00,VWS V14.00,2013-06-20 21:46:00,
2013-06-20 17:51:00,77.7,64.1,30.21,ESE,120,0.0,0.0,63,0.00,,,0.00,VWS V14.00,2013-06-20 21:51:00,
2013-06-20 17:56:00,77.7,64.1,30.21,ESE,120,0.0,0.0,63,0.00,,,0.00,VWS V14.00,2013-06-20 21:56:00,
2013-06-20 18:06:00,77.7,63.7,30.18,ESE,120,0.0,0.0,62,0.00,,,0.00,VWS V14.00,2013-06-20 22:06:00,
2013-06-20 18:11:00,77.5,64.0,30.18,ENE,75,0.0,0.0,63,0.00,,,0.00,VWS V14.00,2013-06-20 22:11:00,
2013-06-20 18:16:00,77.5,63.5,30.18,East,98,0.0,2.2,62,0.00,,,0.00,VWS V14.00,2013-06-20 22:16:00,
2013-06-20 18:21:00,77.7,63.2,30.18,SE,142,0.0,2.7,61,0.00,,,0.00,VWS V14.00,2013-06-20 22:21:00,
2013-06-20 18:26:00,77.7,63.7,30.18,East,98,0.0,0.0,62,0.00,,,0.00,VWS V14.00,2013-06-20 22:26:00,
2013-06-20 18:31:00,77.5,64.0,30.18,East,98,0.0,0.0,63,0.00,,,0.00,VWS V14.00,2013-06-20 22:31:00,
2013-06-20 18:36:00,77.5,64.0,30.18,East,98,0.0,0.0,63,0.00,,,0.00,VWS V14.00,2013-06-20 22:36:00,
2013-06-20 18:41:00,77.4,63.8,30.18,East,98,0.0,0.0,63,0.00,,,0.00,VWS V14.00,2013-06-20 22:41:00,
2013-06-20 18:46:00,77.2,63.6,30.18,East,98,0.0,0.0,63,0.00,,,0.00,VWS V14.00,2013-06-20 22:46:00,
2013-06-20 18:51:00,77.2,63.6,30.18,East,98,0.0,0.0,63,0.00,,,0.00,VWS V14.00,2013-06-20 22:51:00,
2013-06-20 18:56:00,77.0,63.5,30.18,East,98,0.0,0.0,63,0.00,,,0.00,VWS V14.00,2013-06-20 22:56:00,
2013-06-20 19:01:00,77.0,63.5,30.18,East,98,0.0,0.0,63,0.00,,,0.00,VWS V14.00,2013-06-20 23:01:00,
2013-06-20 19:06:00,76.6,63.6,30.21,East,98,0.0,0.0,64,0.00,,,0.00,VWS V14.00,2013-06-20 23:06:00,
2013-06-20 19:11:00,76.3,63.7,30.21,East,98,0.0,0.0,65,0.00,,,0.00,VWS V14.00,2013-06-20 23:11:00,
2013-06-20 19:16:00,76.1,63.5,30.21,East,98,0.0,0.0,65,0.00,,,0.00,VWS V14.00,2013-06-20 23:16:00,
2013-06-20 19:21:00,75.9,63.3,30.21,East,98,0.0,0.0,65,0.00,,,0.00,VWS V14.00,2013-06-20 23:21:00,
2013-06-20 19:26:00,75.7,64.0,30.21,East,98,0.0,0.0,67,0.00,,,0.00,VWS V14.00,2013-06-20 23:26:00,
2013-06-20 19:31:00,75.6,63.8,30.21,East,98,0.0,0.0,67,0.00,,,0.00,VWS V14.00,2013-06-20 23:31:00,
2013-06-20 19:37:00,75.2,63.9,30.21,East,98,0.0,0.0,68,0.00,,,0.00,VWS V14.00,2013-06-20 23:37:00,
2013-06-20 19:42:00,75.0,64.2,30.21,East,98,0.0,0.0,69,0.00,,,0.00,VWS V14.00,2013-06-20 23:42:00,
2013-06-20 19:47:00,74.7,63.8,30.21,East,98,0.0,0.0,69,0.00,,,0.00,VWS V14.00,2013-06-20 23:47:00,
2013-06-20 19:52:00,74.3,64.7,30.21,East,98,0.0,0.0,72,0.00,,,0.00,VWS V14.00,2013-06-20 23:52:00,
2013-06-20 19:57:00,74.1,64.1,30.21,East,98,0.0,0.0,71,0.00,,,0.00,VWS V14.00,2013-06-20 23:57:00,
2013-06-20 20:02:00,73.9,64.0,30.21,East,98,0.0,0.0,71,0.00,,,0.00,VWS V14.00,2013-06-21 00:02:00,
2013-06-20 20:07:00,73.6,64.0,30.21,East,98,0.0,0.0,72,0.00,,,0.00,VWS V14.00,2013-06-21 00:07:00,
2013-06-20 20:12:00,73.4,64.2,30.21,East,98,0.0,0.0,73,0.00,,,0.00,VWS V14.00,2013-06-21 00:12:00,
2013-06-20 20:17:00,73.0,64.3,30.21,East,98,0.0,0.0,74,0.00,,,0.00,VWS V14.00,2013-06-21 00:17:00,
2013-06-20 20:22:00,72.9,64.9,30.21,East,98,0.0,0.0,76,0.00,,,0.00,VWS V14.00,2013-06-21 00:22:00,
2013-06-20 20:27:00,72.5,64.9,30.21,East,98,0.0,0.0,77,0.00,,,0.00,VWS V14.00,2013-06-21 00:27:00,
2013-06-20 20:32:00,72.3,65.1,30.21,East,98,0.0,0.0,78,0.00,,,0.00,VWS V14.00,2013-06-21 00:32:00,
2013-06-20 20:37:00,72.0,64.7,30.24,East,98,0.0,0.0,78,0.00,,,0.00,VWS V14.00,2013-06-21 00:37:00,
2013-06-20 20:42:00,71.6,64.8,30.24,East,98,0.0,0.0,79,0.00,,,0.00,VWS V14.00,2013-06-21 00:42:00,
2013-06-20 20:47:00,71.2,64.8,30.24,East,98,0.0,0.0,80,0.00,,,0.00,VWS V14.00,2013-06-21 00:47:00,
2013-06-20 20:52:00,71.1,64.9,30.24,East,98,0.0,0.0,81,0.00,,,0.00,VWS V14.00,2013-06-21 00:52:00,
2013-06-20 20:57:00,70.9,64.8,30.24,East,98,0.0,0.0,81,0.00,,,0.00,VWS V14.00,2013-06-21 00:57:00,
2013-06-20 21:02:00,70.7,64.6,30.24,East,98,0.0,0.0,81,0.00,,,0.00,VWS V14.00,2013-06-21 01:02:00,
2013-06-20 21:07:00,70.5,64.8,30.24,East,98,0.0,0.0,82,0.00,,,0.00,VWS V14.00,2013-06-21 01:07:00,
2013-06-20 21:12:00,70.3,64.6,30.24,East,98,0.0,0.0,82,0.00,,,0.00,VWS V14.00,2013-06-21 01:12:00,
2013-06-20 21:17:00,70.2,64.4,30.24,East,98,0.0,0.0,82,0.00,,,0.00,VWS V14.00,2013-06-21 01:17:00,
2013-06-20 21:22:00,69.8,64.4,30.24,East,98,0.0,0.0,83,0.00,,,0.00,VWS V14.00,2013-06-21 01:22:00,
2013-06-20 21:27:00,69.6,64.6,30.24,East,98,0.0,0.0,84,0.00,,,0.00,VWS V14.00,2013-06-21 01:27:00,
2013-06-20 21:32:00,69.4,64.7,30.24,East,98,0.0,0.0,85,0.00,,,0.00,VWS V14.00,2013-06-21 01:32:00,
2013-06-20 21:37:00,69.3,64.9,30.24,East,98,0.0,0.0,86,0.00,,,0.00,VWS V14.00,2013-06-21 01:37:00,
2013-06-20 21:42:00,69.1,64.7,30.24,East,98,0.0,0.0,86,0.00,,,0.00,VWS V14.00,2013-06-21 01:42:00,
2013-06-20 21:47:00,68.9,64.6,30.24,East,98,0.0,0.0,86,0.00,,,0.00,VWS V14.00,2013-06-21 01:47:00,
2013-06-20 21:52:00,68.7,64.7,30.24,East,98,0.0,0.0,87,0.00,,,0.00,VWS V14.00,2013-06-21 01:52:00,
2013-06-20 21:57:00,68.5,64.8,30.24,East,98,0.0,0.0,88,0.00,,,0.00,VWS V14.00,2013-06-21 01:57:00,
2013-06-20 22:02:00,68.2,64.5,30.24,East,98,0.0,0.0,88,0.00,,,0.00,VWS V14.00,2013-06-21 02:02:00,
2013-06-20 22:07:00,68.0,64.3,30.24,East,98,0.0,0.0,88,0.00,,,0.00,VWS V14.00,2013-06-21 02:07:00,
2013-06-20 22:12:00,67.8,64.1,30.24,East,98,0.0,0.0,88,0.00,,,0.00,VWS V14.00,2013-06-21 02:12:00,
2013-06-20 22:17:00,67.6,64.3,30.24,East,98,0.0,0.0,89,0.00,,,0.00,VWS V14.00,2013-06-21 02:17:00,
2013-06-20 22:22:00,67.5,64.1,30.24,East,98,0.0,0.0,89,0.00,,,0.00,VWS V14.00,2013-06-21 02:22:00,
2013-06-20 22:28:00,67.3,64.2,30.24,East,98,0.0,0.0,90,0.00,,,0.00,VWS V14.00,2013-06-21 02:28:00,
2013-06-20 22:33:00,67.1,64.1,30.24,East,98,0.0,0.0,90,0.00,,,0.00,VWS V14.00,2013-06-21 02:33:00,
2013-06-20 22:38:00,67.1,64.1,30.24,East,98,0.0,0.0,90,0.00,,,0.00,VWS V14.00,2013-06-21 02:38:00,
2013-06-20 22:43:00,67.1,64.1,30.24,East,98,0.0,0.0,90,0.00,,,0.00,VWS V14.00,2013-06-21 02:43:00,
2013-06-20 22:48:00,66.9,63.9,30.24,East,98,0.0,0.0,90,0.00,,,0.00,VWS V14.00,2013-06-21 02:48:00,
2013-06-20 22:53:00,66.7,63.7,30.24,East,98,0.0,0.0,90,0.00,,,0.00,VWS V14.00,2013-06-21 02:53:00,
2013-06-20 22:58:00,66.6,63.9,30.24,East,98,0.0,0.0,91,0.00,,,0.00,VWS V14.00,2013-06-21 02:58:00,
2013-06-20 23:03:00,66.6,63.9,30.24,East,98,0.0,0.0,91,0.00,,,0.00,VWS V14.00,2013-06-21 03:03:00,
2013-06-20 23:08:00,66.4,63.7,30.24,East,98,0.0,0.0,91,0.00,,,0.00,VWS V14.00,2013-06-21 03:08:00,
2013-06-20 23:13:00,66.2,63.8,30.24,East,98,0.0,0.0,92,0.00,,,0.00,VWS V14.00,2013-06-21 03:13:00,
2013-06-20 23:18:00,66.2,63.5,30.24,East,98,0.0,0.0,91,0.00,,,0.00,VWS V14.00,2013-06-21 03:18:00,
2013-06-20 23:23:00,66.0,63.6,30.24,East,98,0.0,0.0,92,0.00,,,0.00,VWS V14.00,2013-06-21 03:23:00,
2013-06-20 23:28:00,65.8,63.5,30.24,East,98,0.0,0.0,92,0.00,,,0.00,VWS V14.00,2013-06-21 03:28:00,
2013-06-20 23:33:00,65.7,63.3,30.24,East,98,0.0,0.0,92,0.00,,,0.00,VWS V14.00,2013-06-21 03:33:00,
2013-06-20 23:38:00,65.7,63.3,30.21,East,98,0.0,0.0,92,0.00,,,0.00,VWS V14.00,2013-06-21 03:38:00,
2013-06-20 23:44:00,65.7,63.6,30.21,East,98,0.0,0.0,93,0.00,,,0.00,VWS V14.00,2013-06-21 03:44:00,
2013-06-20 23:49:00,65.5,63.4,30.24,East,98,0.0,0.0,93,0.00,,,0.00,VWS V14.00,2013-06-21 03:49:00,
2013-06-20 23:54:00,65.5,63.4,30.24,East,98,0.0,0.0,93,0.00,,,0.00,VWS V14.00,2013-06-21 03:54:00,
2013-06-20 23:59:00,65.3,63.2,30.24,East,98,0.0,0.0,93,0.00,,,0.00,VWS V14.00,2013-06-21 03:59:00,